Time,TemperatureF,DewpointF,PressureIn,WindDirection,WindDirectionDegrees,WindSpeedMPH,WindSpeedGustMPH,Humidity,HourlyPrecipIn,Conditions,Clouds,dailyrainin,SoftwareType,DateUTC
2013-03-13 00:00:00,58.8,50.2,29.90,WNW,283,3.0,3.0,73,0.00,,,0.00,Wunderground v.1.15,2013-03-13 04:00:00,
2013-03-13 00:05:00,58.6,50.0,29.90,WNW,300,4.0,4.0,73,0.00,,,0.00,Wunderground v.1.15,2013-03-13 04:05:00,
2013-03-13 00:10:00,58.5,50.2,29.90,NW,304,3.0,4.0,74,0.00,,,0.00,Wunderground v.1.15,2013-03-13 04:10:00,
2013-03-13 00:15:00,58.3,50.0,29.90,WNW,302,2.0,4.0,74,0.00,,,0.00,Wunderground v.1.15,2013-03-13 04:15:00,
2013-03-13 00:25:00,58.0,49.8,29.91,NW,316,4.0,6.0,74,0.00,,,0.00,Wunderground v.1.15,2013-03-13 04:25:00,
2013-03-13 00:35:00,57.8,49.9,29.91,NW,312,4.0,8.0,75,0.00,,,0.00,Wunderground v.1.15,2013-03-13 04:35:00,
2013-03-13 00:40:00,57.7,49.8,29.91,NW,304,3.0,6.0,75,0.00,,,0.00,Wunderground v.1.15,2013-03-13 04:40:00,
2013-03-13 00:50:00,57.4,49.5,29.91,WNW,293,2.0,4.0,75,0.00,,,0.00,Wunderground v.1.15,2013-03-13 04:50:00,
2013-03-13 01:00:00,57.1,49.6,29.91,NW,306,1.0,1.0,76,0.00,,,0.00,Wunderground v.1.15,2013-03-13 05:00:00,
2013-03-13 01:10:00,56.8,49.3,29.91,NW,308,0.0,0.0,76,0.00,,,0.00,Wunderground v.1.15,2013-03-13 05:10:00,
2013-03-13 01:20:00,56.5,49.4,29.92,WNW,302,0.0,0.0,77,0.00,,,0.00,Wunderground v.1.15,2013-03-13 05:20:00,
2013-03-13 01:30:00,56.2,49.1,29.92,NW,309,0.0,0.0,77,0.00,,,0.00,Wunderground v.1.15,2013-03-13 05:30:00,
2013-03-13 01:40:00,56.0,48.9,29.92,WNW,291,0.0,0.0,77,0.00,,,0.00,Wunderground v.1.15,2013-03-13 05:40:00,
2013-03-13 01:45:00,55.9,48.4,29.93,North,349,0.0,0.0,76,0.00,,,0.00,Wunderground v.1.15,2013-03-13 05:45:00,
2013-03-13 01:55:00,55.8,48.3,29.93,North,355,0.0,2.0,76,0.00,,,0.00,Wunderground v.1.15,2013-03-13 05:55:00,
2013-03-13 02:05:00,55.7,47.9,29.93,NNE,24,0.0,3.0,75,0.00,,,0.00,Wunderground v.1.15,2013-03-13 06:05:00,
2013-03-13 02:10:00,55.6,47.8,29.93,NW,313,0.0,0.0,75,0.00,,,0.00,Wunderground v.1.15,2013-03-13 06:10:00,
2013-03-13 02:20:00,55.3,47.9,29.94,North,355,0.0,0.0,76,0.00,,,0.00,Wunderground v.1.15,2013-03-13 06:20:00,
2013-03-13 02:25:00,55.1,47.3,29.94,NNE,12,0.0,0.0,75,0.00,,,0.00,Wunderground v.1.15,2013-03-13 06:25:00,
2013-03-13 02:35:00,54.8,47.0,29.94,NNE,19,0.0,0.0,75,0.00,,,0.00,Wunderground v.1.15,2013-03-13 06:35:00,
2013-03-13 02:40:00,54.6,46.5,29.94,NNE,15,0.0,0.0,74,0.00,,,0.00,Wunderground v.1.15,2013-03-13 06:40:00,
2013-03-13 02:50:00,54.5,44.9,29.95,WNW,290,1.0,1.0,70,0.00,,,0.00,Wunderground v.1.15,2013-03-13 06:50:00,
2013-03-13 02:55:00,54.4,44.8,29.95,North,360,1.0,1.0,70,0.00,,,0.00,Wunderground v.1.15,2013-03-13 06:55:00,
2013-03-13 03:00:00,54.3,45.1,29.95,NW,325,0.0,0.0,71,0.00,,,0.00,Wunderground v.1.15,2013-03-13 07:00:00,
2013-03-13 03:10:00,53.9,45.1,29.95,WNW,300,0.0,1.0,72,0.00,,,0.00,Wunderground v.1.15,2013-03-13 07:10:00,
2013-03-13 03:20:00,53.6,43.7,29.95,NNW,342,2.0,2.0,69,0.00,,,0.00,Wunderground v.1.15,2013-03-13 07:20:00,
2013-03-13 03:25:00,53.6,43.3,29.95,North,360,2.0,5.0,68,0.00,,,0.00,Wunderground v.1.15,2013-03-13 07:25:00,
2013-03-13 03:35:00,53.5,42.0,29.95,NW,318,3.0,7.0,65,0.00,,,0.00,Wunderground v.1.15,2013-03-13 07:35:00,
2013-03-13 03:40:00,53.4,41.9,29.95,NNW,346,1.0,1.0,65,0.00,,,0.00,Wunderground v.1.15,2013-03-13 07:40:00,
2013-03-13 03:50:00,53.1,40.8,29.95,North,10,2.0,4.0,63,0.00,,,0.00,Wunderground v.1.15,2013-03-13 07:50:00,
2013-03-13 03:55:00,53.1,40.4,29.95,NW,313,2.0,4.0,62,0.00,,,0.00,Wunderground v.1.15,2013-03-13 07:55:00,
2013-03-13 04:10:00,52.9,39.8,29.96,WNW,302,2.0,2.0,61,0.00,,,0.00,Wunderground v.1.15,2013-03-13 08:10:00,
2013-03-13 04:20:00,52.4,41.0,29.97,North,5,0.0,0.0,65,0.00,,,0.00,Wunderground v.1.15,2013-03-13 08:20:00,
2013-03-13 04:30:00,51.8,41.2,29.97,NW,323,0.0,0.0,67,0.00,,,0.00,Wunderground v.1.15,2013-03-13 08:30:00,
2013-03-13 04:40:00,51.2,41.0,29.97,NW,323,0.0,0.0,68,0.00,,,0.00,Wunderground v.1.15,2013-03-13 08:40:00,
2013-03-13 04:45:00,51.0,40.4,29.97,NW,313,0.0,0.0,67,0.00,,,0.00,Wunderground v.1.15,2013-03-13 08:45:00,
2013-03-13 04:55:00,50.5,40.3,29.97,NW,304,1.0,1.0,68,0.00,,,0.00,Wunderground v.1.15,2013-03-13 08:55:00,
2013-03-13 05:05:00,50.1,39.9,29.98,NW,309,1.0,1.0,68,0.00,,,0.00,Wunderground v.1.15,2013-03-13 09:05:00,
2013-03-13 05:15:00,49.7,39.6,29.98,WNW,303,1.0,1.0,68,0.00,,,0.00,Wunderground v.1.15,2013-03-13 09:15:00,
2013-03-13 05:20:00,49.6,39.5,29.98,NW,309,1.0,1.0,68,0.00,,,0.00,Wunderground v.1.15,2013-03-13 09:20:00,
2013-03-13 05:30:00,49.6,38.7,29.99,North,360,1.0,1.0,66,0.00,,,0.00,Wunderground v.1.15,2013-03-13 09:30:00,
2013-03-13 05:40:00,49.4,38.9,29.99,WNW,302,0.0,0.0,67,0.00,,,0.00,Wunderground v.1.15,2013-03-13 09:40:00,
2013-03-13 05:45:00,49.2,38.7,30.00,NW,322,1.0,1.0,67,0.00,,,0.00,Wunderground v.1.15,2013-03-13 09:45:00,
2013-03-13 05:55:00,48.9,38.4,30.00,NNW,341,0.0,2.0,67,0.00,,,0.00,Wunderground v.1.15,2013-03-13 09:55:00,
2013-03-13 06:05:00,48.7,38.6,30.00,NNW,335,0.0,0.0,68,0.00,,,0.00,Wunderground v.1.15,2013-03-13 10:05:00,
2013-03-13 06:15:00,48.4,38.3,30.01,NNW,331,0.0,1.0,68,0.00,,,0.00,Wunderground v.1.15,2013-03-13 10:15:00,
2013-03-13 06:25:00,48.2,38.5,30.01,North,355,0.0,0.0,69,0.00,,,0.00,Wunderground v.1.15,2013-03-13 10:25:00,
2013-03-13 06:35:00,47.9,38.2,30.02,WNW,292,1.0,3.0,69,0.00,,,0.00,Wunderground v.1.15,2013-03-13 10:35:00,
2013-03-13 06:40:00,47.8,38.5,30.02,NNW,331,1.0,1.0,70,0.00,,,0.00,Wunderground v.1.15,2013-03-13 10:40:00,
2013-03-13 06:50:00,47.6,38.3,30.03,North,355,0.0,0.0,70,0.00,,,0.00,Wunderground v.1.15,2013-03-13 10:50:00,
2013-03-13 07:00:00,47.3,38.4,30.03,NW,321,0.0,0.0,71,0.00,,,0.00,Wunderground v.1.15,2013-03-13 11:00:00,
2013-03-13 07:10:00,47.0,38.1,30.04,West,276,0.0,2.0,71,0.00,,,0.00,Wunderground v.1.15,2013-03-13 11:10:00,
2013-03-13 07:20:00,46.7,38.1,30.04,WNW,301,0.0,2.0,72,0.00,,,0.00,Wunderground v.1.15,2013-03-13 11:20:00,
2013-03-13 07:30:00,46.5,38.3,30.04,WNW,300,0.0,3.0,73,0.00,,,0.00,Wunderground v.1.15,2013-03-13 11:30:00,
2013-03-13 07:35:00,46.4,38.2,30.05,NW,307,0.0,3.0,73,0.00,,,0.00,Wunderground v.1.15,2013-03-13 11:35:00,
2013-03-13 07:45:00,46.2,38.0,30.05,North,9,0.0,0.0,73,0.00,,,0.00,Wunderground v.1.15,2013-03-13 11:45:00,
2013-03-13 07:50:00,46.2,38.0,30.06,NNW,337,0.0,0.0,73,0.00,,,0.00,Wunderground v.1.15,2013-03-13 11:50:00,
2013-03-13 08:00:00,46.4,38.2,30.06,NNE,14,0.0,0.0,73,0.00,,,0.00,Wunderground v.1.15,2013-03-13 12:00:00,
2013-03-13 08:10:00,46.6,38.4,30.06,NNE,22,0.0,0.0,73,0.00,,,0.00,Wunderground v.1.15,2013-03-13 12:10:00,
2013-03-13 08:15:00,46.8,38.2,30.06,WNW,286,0.0,0.0,72,0.00,,,0.00,Wunderground v.1.15,2013-03-13 12:15:00,
2013-03-13 08:20:00,47.0,38.4,30.07,NW,317,0.0,0.0,72,0.00,,,0.00,Wunderground v.1.15,2013-03-13 12:20:00,
2013-03-13 08:30:00,47.3,38.4,30.07,NNW,333,0.0,0.0,71,0.00,,,0.00,Wunderground v.1.15,2013-03-13 12:30:00,
2013-03-13 08:35:00,47.5,38.6,30.07,NNW,344,0.0,2.0,71,0.00,,,0.00,Wunderground v.1.15,2013-03-13 12:35:00,
2013-03-13 08:45:00,48.2,37.8,30.08,NNE,17,1.0,5.0,67,0.00,,,0.00,Wunderground v.1.15,2013-03-13 12:45:00,
2013-03-13 08:55:00,48.8,37.6,30.08,North,355,1.0,1.0,65,0.00,,,0.00,Wunderground v.1.15,2013-03-13 12:55:00,
2013-03-13 09:00:00,49.0,37.7,30.08,North,5,1.0,1.0,65,0.00,,,0.00,Wunderground v.1.15,2013-03-13 13:00:00,
2013-03-13 09:10:00,49.6,36.7,30.08,NE,36,1.0,1.0,61,0.00,,,0.00,Wunderground v.1.15,2013-03-13 13:10:00,
2013-03-13 09:20:00,49.9,36.6,30.09,NE,41,2.0,2.0,60,0.00,,,0.00,Wunderground v.1.15,2013-03-13 13:20:00,
2013-03-13 09:25:00,50.2,36.8,30.09,North,349,1.0,2.0,60,0.00,,,0.00,Wunderground v.1.15,2013-03-13 13:25:00,
2013-03-13 09:35:00,50.3,36.1,30.09,North,5,2.0,3.0,58,0.00,,,0.00,Wunderground v.1.15,2013-03-13 13:35:00,
2013-03-13 09:45:00,50.6,36.8,30.09,North,5,4.0,4.0,59,0.00,,,0.00,Wunderground v.1.15,2013-03-13 13:45:00,
2013-03-13 09:50:00,50.9,36.6,30.09,NE,51,2.0,2.0,58,0.00,,,0.00,Wunderground v.1.15,2013-03-13 13:50:00,
2013-03-13 10:00:00,51.3,37.9,30.09,North,5,1.0,1.0,60,0.00,,,0.00,Wunderground v.1.15,2013-03-13 14:00:00,
2013-03-13 10:10:00,51.5,37.2,30.09,NNW,342,2.0,2.0,58,0.00,,,0.00,Wunderground v.1.15,2013-03-13 14:10:00,
2013-03-13 10:20:00,52.3,37.1,30.09,NW,323,0.0,0.0,56,0.00,,,0.00,Wunderground v.1.15,2013-03-13 14:20:00,
2013-03-13 10:25:00,52.4,36.2,30.09,WNW,300,1.0,1.0,54,0.00,,,0.00,Wunderground v.1.15,2013-03-13 14:25:00,
2013-03-13 10:35:00,52.6,36.4,30.09,NNW,346,2.0,2.0,54,0.00,,,0.00,Wunderground v.1.15,2013-03-13 14:35:00,
2013-03-13 10:45:00,53.3,37.1,30.09,NE,36,0.0,1.0,54,0.00,,,0.00,Wunderground v.1.15,2013-03-13 14:45:00,
2013-03-13 10:50:00,54.0,36.3,30.09,NNE,32,0.0,4.0,51,0.00,,,0.00,Wunderground v.1.15,2013-03-13 14:50:00,
2013-03-13 11:00:00,54.4,36.1,30.09,NW,307,2.0,3.0,50,0.00,,,0.00,Wunderground v.1.15,2013-03-13 15:00:00,
2013-03-13 11:10:00,54.2,35.9,30.09,WNW,294,4.0,6.0,50,0.00,,,0.00,Wunderground v.1.15,2013-03-13 15:10:00,
2013-03-13 11:20:00,54.8,36.0,30.09,ENE,64,1.0,4.0,49,0.00,,,0.00,Wunderground v.1.15,2013-03-13 15:20:00,
2013-03-13 11:30:00,54.8,36.0,30.09,NNW,329,3.0,3.0,49,0.00,,,0.00,Wunderground v.1.15,2013-03-13 15:30:00,
2013-03-13 11:40:00,55.1,35.7,30.08,NNW,336,3.0,3.0,48,0.00,,,0.00,Wunderground v.1.15,2013-03-13 15:40:00,
2013-03-13 11:45:00,55.0,35.7,30.08,North,355,3.0,3.0,48,0.00,,,0.00,Wunderground v.1.15,2013-03-13 15:45:00,
2013-03-13 11:55:00,55.7,35.8,30.08,WNW,299,2.0,2.0,47,0.00,,,0.00,Wunderground v.1.15,2013-03-13 15:55:00,
2013-03-13 12:00:00,55.7,35.2,30.08,NW,319,3.0,3.0,46,0.00,,,0.00,Wunderground v.1.15,2013-03-13 16:00:00,
2013-03-13 12:10:00,55.8,34.8,30.07,WSW,250,1.0,1.0,45,0.00,,,0.00,Wunderground v.1.15,2013-03-13 16:10:00,
2013-03-13 12:20:00,56.0,34.9,30.07,NE,36,3.0,3.0,45,0.00,,,0.00,Wunderground v.1.15,2013-03-13 16:20:00,
2013-03-13 12:30:00,57.8,36.0,30.06,WNW,291,1.0,8.0,44,0.00,,,0.00,Wunderground v.1.15,2013-03-13 16:30:00,
2013-03-13 12:40:00,57.6,33.4,30.06,WNW,292,8.0,13.0,40,0.00,,,0.00,Wunderground v.1.15,2013-03-13 16:40:00,
2013-03-13 12:50:00,57.8,33.6,30.06,NW,311,8.0,8.0,40,0.00,,,0.00,Wunderground v.1.15,2013-03-13 16:50:00,
2013-03-13 12:55:00,58.2,33.3,30.05,NW,314,8.0,8.0,39,0.00,,,0.00,Wunderground v.1.15,2013-03-13 16:55:00,
2013-03-13 13:05:00,58.7,32.5,30.05,NW,315,5.0,13.0,37,0.00,,,0.00,Wunderground v.1.15,2013-03-13 17:05:00,
2013-03-13 13:15:00,59.4,34.4,30.04,NW,317,4.0,8.0,39,0.00,,,0.00,Wunderground v.1.15,2013-03-13 17:15:00,
2013-03-13 13:20:00,59.1,30.0,30.04,WSW,252,6.0,9.0,33,0.00,,,0.00,Wunderground v.1.15,2013-03-13 17:20:00,
2013-03-13 13:25:00,58.9,32.0,30.03,WSW,254,9.0,15.0,36,0.00,,,0.00,Wunderground v.1.15,2013-03-13 17:25:00,
2013-03-13 13:35:00,59.3,30.9,30.03,WNW,298,11.0,11.0,34,0.00,,,0.00,Wunderground v.1.15,2013-03-13 17:35:00,
2013-03-13 13:45:00,60.2,29.4,30.02,West,279,10.0,10.0,31,0.00,,,0.00,Wunderground v.1.15,2013-03-13 17:45:00,
2013-03-13 13:50:00,60.0,26.8,30.02,West,260,11.0,11.0,28,0.00,,,0.00,Wunderground v.1.15,2013-03-13 17:50:00,
2013-03-13 14:00:00,60.3,27.9,30.01,WNW,292,9.0,11.0,29,0.00,,,0.00,Wunderground v.1.15,2013-03-13 18:00:00,
2013-03-13 14:05:00,60.3,27.0,30.01,WNW,290,11.0,11.0,28,0.00,,,0.00,Wunderground v.1.15,2013-03-13 18:05:00,
2013-03-13 14:15:00,60.7,28.2,30.00,West,265,8.0,10.0,29,0.00,,,0.00,Wunderground v.1.15,2013-03-13 18:15:00,
2013-03-13 14:20:00,60.7,28.2,30.00,WNW,293,8.0,12.0,29,0.00,,,0.00,Wunderground v.1.15,2013-03-13 18:20:00,
2013-03-13 14:30:00,60.8,28.3,29.99,West,273,8.0,11.0,29,0.00,,,0.00,Wunderground v.1.15,2013-03-13 18:30:00,
2013-03-13 14:35:00,60.9,27.5,29.99,West,269,7.0,11.0,28,0.00,,,0.00,Wunderground v.1.15,2013-03-13 18:35:00,
2013-03-13 14:45:00,61.3,27.0,29.98,WSW,254,8.0,14.0,27,0.00,,,0.00,Wunderground v.1.15,2013-03-13 18:45:00,
2013-03-13 14:55:00,61.9,29.3,29.98,WNW,296,10.0,11.0,29,0.00,,,0.00,Wunderground v.1.15,2013-03-13 18:55:00,
2013-03-13 15:05:00,61.5,27.2,29.97,WSW,246,10.0,17.0,27,0.00,,,0.00,Wunderground v.1.15,2013-03-13 19:05:00,
2013-03-13 15:10:00,62.2,26.9,29.97,NW,315,10.0,10.0,26,0.00,,,0.00,Wunderground v.1.15,2013-03-13 19:10:00,
2013-03-13 15:20:00,62.1,25.8,29.96,West,267,11.0,11.0,25,0.00,,,0.00,Wunderground v.1.15,2013-03-13 19:20:00,
2013-03-13 15:30:00,62.6,24.2,29.97,West,281,9.0,9.0,23,0.00,,,0.00,Wunderground v.1.15,2013-03-13 19:30:00,
2013-03-13 15:40:00,62.3,26.0,29.96,WNW,286,10.0,10.0,25,0.00,,,0.00,Wunderground v.1.15,2013-03-13 19:40:00,
2013-03-13 15:50:00,62.9,27.5,29.96,WNW,292,10.0,10.0,26,0.00,,,0.00,Wunderground v.1.15,2013-03-13 19:50:00,
2013-03-13 15:55:00,62.5,27.1,29.95,WNW,293,10.0,12.0,26,0.00,,,0.00,Wunderground v.1.15,2013-03-13 19:55:00,
2013-03-13 16:05:00,62.8,26.4,29.96,WNW,294,8.0,9.0,25,0.00,,,0.00,Wunderground v.1.15,2013-03-13 20:05:00,
2013-03-13 16:10:00,62.4,28.8,29.95,WNW,292,8.0,10.0,28,0.00,,,0.00,Wunderground v.1.15,2013-03-13 20:10:00,
2013-03-13 16:20:00,62.6,29.9,29.95,West,263,6.0,6.0,29,0.00,,,0.00,Wunderground v.1.15,2013-03-13 20:20:00,
2013-03-13 16:30:00,62.6,27.2,29.95,WNW,294,9.0,9.0,26,0.00,,,0.00,Wunderground v.1.15,2013-03-13 20:30:00,
2013-03-13 16:35:00,62.7,28.2,29.95,WNW,286,10.0,10.0,27,0.00,,,0.00,Wunderground v.1.15,2013-03-13 20:35:00,
2013-03-13 16:40:00,62.7,27.3,29.95,West,278,10.0,10.0,26,0.00,,,0.00,Wunderground v.1.15,2013-03-13 20:40:00,
2013-03-13 16:50:00,62.5,27.1,29.95,NW,313,8.0,8.0,26,0.00,,,0.00,Wunderground v.1.15,2013-03-13 20:50:00,
2013-03-13 17:00:00,62.6,28.1,29.95,West,273,10.0,10.0,27,0.00,,,0.00,Wunderground v.1.15,2013-03-13 21:00:00,
2013-03-13 17:05:00,62.5,26.2,29.95,West,279,11.0,11.0,25,0.00,,,0.00,Wunderground v.1.15,2013-03-13 21:05:00,
2013-03-13 17:15:00,62.6,27.2,29.95,WNW,302,9.0,10.0,26,0.00,,,0.00,Wunderground v.1.15,2013-03-13 21:15:00,
2013-03-13 17:20:00,62.7,27.3,29.95,WNW,302,9.0,9.0,26,0.00,,,0.00,Wunderground v.1.15,2013-03-13 21:20:00,
2013-03-13 17:30:00,62.7,28.2,29.95,NW,304,7.0,7.0,27,0.00,,,0.00,Wunderground v.1.15,2013-03-13 21:30:00,
2013-03-13 17:40:00,62.5,28.0,29.95,WNW,300,8.0,8.0,27,0.00,,,0.00,Wunderground v.1.15,2013-03-13 21:40:00,
2013-03-13 17:50:00,62.6,26.2,29.95,West,271,8.0,8.0,25,0.00,,,0.00,Wunderground v.1.15,2013-03-13 21:50:00,
2013-03-13 18:00:00,62.3,27.9,29.95,WNW,288,9.0,9.0,27,0.00,,,0.00,Wunderground v.1.15,2013-03-13 22:00:00,
2013-03-13 18:10:00,62.3,28.7,29.95,WNW,286,8.0,9.0,28,0.00,,,0.00,Wunderground v.1.15,2013-03-13 22:10:00,
2013-03-13 18:20:00,62.3,26.0,29.95,WNW,301,9.0,12.0,25,0.00,,,0.00,Wunderground v.1.15,2013-03-13 22:20:00,
2013-03-13 18:25:00,62.2,26.9,29.95,WNW,288,9.0,12.0,26,0.00,,,0.00,Wunderground v.1.15,2013-03-13 22:25:00,
2013-03-13 18:35:00,62.0,27.6,29.96,WNW,293,6.0,8.0,27,0.00,,,0.00,Wunderground v.1.15,2013-03-13 22:35:00,
2013-03-13 18:45:00,61.8,27.4,29.96,WNW,294,6.0,8.0,27,0.00,,,0.00,Wunderground v.1.15,2013-03-13 22:45:00,
2013-03-13 18:50:00,61.7,27.3,29.96,West,269,7.0,7.0,27,0.00,,,0.00,Wunderground v.1.15,2013-03-13 22:50:00,
2013-03-13 18:55:00,61.6,27.3,29.96,WNW,292,8.0,8.0,27,0.00,,,0.00,Wunderground v.1.15,2013-03-13 22:55:00,
2013-03-13 19:05:00,61.2,27.8,29.96,West,281,5.0,7.0,28,0.00,,,0.00,Wunderground v.1.15,2013-03-13 23:05:00,
2013-03-13 19:10:00,61.0,27.6,29.97,West,275,3.0,3.0,28,0.00,,,0.00,Wunderground v.1.15,2013-03-13 23:10:00,
2013-03-13 19:20:00,60.5,29.7,29.97,West,277,4.0,4.0,31,0.00,,,0.00,Wunderground v.1.15,2013-03-13 23:20:00,
2013-03-13 19:25:00,60.3,29.5,29.97,WNW,289,2.0,4.0,31,0.00,,,0.00,Wunderground v.1.15,2013-03-13 23:25:00,
2013-03-13 19:30:00,60.1,28.5,29.98,West,271,1.0,1.0,30,0.00,,,0.00,Wunderground v.1.15,2013-03-13 23:30:00,
2013-03-13 19:40:00,59.6,29.7,29.98,WNW,294,1.0,1.0,32,0.00,,,0.00,Wunderground v.1.15,2013-03-13 23:40:00,
2013-03-13 19:50:00,59.2,29.3,29.98,WNW,290,0.0,0.0,32,0.00,,,0.00,Wunderground v.1.15,2013-03-13 23:50:00,
2013-03-13 20:00:00,58.8,31.2,29.99,WNW,290,0.0,0.0,35,0.00,,,0.00,Wunderground v.1.15,2013-03-14 00:00:00,
2013-03-13 20:05:00,58.5,30.9,29.99,WNW,290,0.0,0.0,35,0.00,,,0.00,Wunderground v.1.15,2013-03-14 00:05:00,
2013-03-13 20:15:00,57.9,32.4,29.99,WNW,290,0.0,0.0,38,0.00,,,0.00,Wunderground v.1.15,2013-03-14 00:15:00,
2013-03-13 20:25:00,57.2,30.5,29.99,WNW,290,0.0,0.0,36,0.00,,,0.00,Wunderground v.1.15,2013-03-14 00:25:00,
2013-03-13 20:35:00,56.4,30.4,30.00,WNW,290,0.0,0.0,37,0.00,,,0.00,Wunderground v.1.15,2013-03-14 00:35:00,
2013-03-13 20:45:00,55.7,32.3,30.00,WNW,290,0.0,0.0,41,0.00,,,0.00,Wunderground v.1.15,2013-03-14 00:45:00,
2013-03-13 20:50:00,55.5,31.5,30.00,WNW,290,0.0,0.0,40,0.00,,,0.00,Wunderground v.1.15,2013-03-14 00:50:00,
2013-03-13 21:00:00,55.0,36.7,30.00,WNW,290,0.0,0.0,50,0.00,,,0.00,Wunderground v.1.15,2013-03-14 01:00:00,
2013-03-13 21:05:00,54.8,36.0,30.01,WNW,290,0.0,0.0,49,0.00,,,0.00,Wunderground v.1.15,2013-03-14 01:05:00,
2013-03-13 21:15:00,54.3,35.5,30.01,WNW,290,0.0,0.0,49,0.00,,,0.00,Wunderground v.1.15,2013-03-14 01:15:00,
2013-03-13 21:20:00,54.0,36.3,30.01,WNW,290,0.0,0.0,51,0.00,,,0.00,Wunderground v.1.15,2013-03-14 01:20:00,
2013-03-13 21:25:00,53.6,33.8,30.01,WNW,290,0.0,0.0,47,0.00,,,0.00,Wunderground v.1.15,2013-03-14 01:25:00,
2013-03-13 21:35:00,53.2,34.5,30.02,WNW,290,0.0,0.0,49,0.00,,,0.00,Wunderground v.1.15,2013-03-14 01:35:00,
2013-03-13 21:40:00,52.9,36.7,30.02,WNW,290,0.0,0.0,54,0.00,,,0.00,Wunderground v.1.15,2013-03-14 01:40:00,
2013-03-13 21:45:00,52.5,32.3,30.02,WNW,287,0.0,0.0,46,0.00,,,0.00,Wunderground v.1.15,2013-03-14 01:45:00,
2013-03-13 21:55:00,52.3,32.1,30.03,West,279,0.0,0.0,46,0.00,,,0.00,Wunderground v.1.15,2013-03-14 01:55:00,
2013-03-13 22:05:00,52.4,32.7,30.03,West,277,0.0,0.0,47,0.00,,,0.00,Wunderground v.1.15,2013-03-14 02:05:00,
2013-03-13 22:15:00,52.4,31.7,30.03,NW,317,0.0,0.0,45,0.00,,,0.00,Wunderground v.1.15,2013-03-14 02:15:00,
2013-03-13 22:25:00,52.3,31.0,30.03,NW,316,0.0,1.0,44,0.00,,,0.00,Wunderground v.1.15,2013-03-14 02:25:00,
2013-03-13 22:30:00,52.4,32.2,30.03,West,280,1.0,1.0,46,0.00,,,0.00,Wunderground v.1.15,2013-03-14 02:30:00,
2013-03-13 22:40:00,52.5,32.8,30.03,West,266,0.0,0.0,47,0.00,,,0.00,Wunderground v.1.15,2013-03-14 02:40:00,
2013-03-13 22:45:00,52.4,32.2,30.03,West,279,0.0,0.0,46,0.00,,,0.00,Wunderground v.1.15,2013-03-14 02:45:00,
2013-03-13 22:55:00,52.2,30.9,30.05,WNW,293,2.0,14.0,44,0.00,,,0.00,Wunderground v.1.15,2013-03-14 02:55:00,
2013-03-13 23:00:00,52.4,30.5,30.05,WNW,293,4.0,5.0,43,0.00,,,0.00,Wunderground v.1.15,2013-03-14 03:00:00,
2013-03-13 23:10:00,52.4,30.0,30.06,NW,318,3.0,3.0,42,0.00,,,0.00,Wunderground v.1.15,2013-03-14 03:10:00,
2013-03-13 23:15:00,52.3,29.9,30.06,NW,321,3.0,3.0,42,0.00,,,0.00,Wunderground v.1.15,2013-03-14 03:15:00,
2013-03-13 23:25:00,52.1,29.7,30.07,NW,319,3.0,3.0,42,0.00,,,0.00,Wunderground v.1.15,2013-03-14 03:25:00,
2013-03-13 23:30:00,52.0,29.0,30.07,NW,315,3.0,3.0,41,0.00,,,0.00,Wunderground v.1.15,2013-03-14 03:30:00,
2013-03-13 23:40:00,51.6,28.6,30.07,NE,36,2.0,2.0,41,0.00,,,0.00,Wunderground v.1.15,2013-03-14 03:40:00,
2013-03-13 23:45:00,51.3,29.0,30.07,NNE,19,2.0,5.0,42,0.00,,,0.00,Wunderground v.1.15,2013-03-14 03:45:00,
2013-03-13 23:50:00,51.0,28.7,30.08,NNE,22,2.0,2.0,42,0.00,,,0.00,Wunderground v.1.15,2013-03-14 03:50:00,